Time;durP1;ratioP1;P1;durP2;ratioP2;P2;SDS_P1;SDS_P2;PMS_P1;PMS_P2;Temp;Humidity;BMP_temperature;BMP_pressure;BME280_temperature;BME280_humidity;BME280_pressure;Samples;Min_cycle;Max_cycle;Signal;HPM_P1;HPM_P2
2023/03/03 00:01:35;;;;;;;27.97;15.17;;;7.00;64.70;6.60;96419.00;;;;5068484;28;20229;-81
2023/03/03 00:04:04;;;;;;;28.10;16.03;;;7.00;64.60;6.60;96407.00;;;;5032947;28;20209;-81
2023/03/03 00:06:31;;;;;;;30.20;16.17;;;6.90;64.60;6.60;96419.00;;;;5032447;28;20254;-81
2023/03/03 00:09:00;;;;;;;30.10;16.43;;;6.90;64.70;6.50;96422.00;;;;5052754;27;20236;-81
2023/03/03 00:11:28;;;;;;;27.50;16.37;;;6.90;64.70;6.50;96421.00;;;;5039895;28;20232;-81
2023/03/03 00:13:57;;;;;;;31.37;16.33;;;6.90;64.70;6.50;96420.00;;;;5032808;28;20200;-81
2023/03/03 00:16:33;;;;;;;32.70;16.60;;;6.90;64.90;6.50;96420.00;;;;5037465;28;20218;-81
2023/03/03 00:19:01;;;;;;;28.57;16.93;;;6.80;65.00;6.50;96428.00;;;;5035729;28;20265;-81
2023/03/03 00:21:33;;;;;;;28.13;16.17;;;6.80;65.00;6.50;96416.00;;;;5029259;28;20306;-79
2023/03/03 00:24:19;;;;;;;27.80;15.73;;;6.80;65.00;6.50;96414.00;;;;5035634;28;20562;-81
2023/03/03 00:26:49;;;;;;;27.20;15.67;;;6.80;65.00;6.40;96413.00;;;;5033441;28;20181;-81
2023/03/03 00:29:34;;;;;;;28.30;16.87;;;6.80;64.90;6.40;96412.00;;;;5033806;28;20201;-81
2023/03/03 00:32:22;;;;;;;28.20;16.07;;;6.80;65.00;6.40;96414.00;;;;5032097;28;20217;-81
2023/03/03 00:34:52;;;;;;;30.97;16.50;;;6.80;65.00;6.40;96415.00;;;;5032152;28;20638;-81
2023/03/03 00:37:35;;;;;;;29.67;16.53;;;6.80;65.00;6.40;96417.00;;;;5033685;28;20198;-81
2023/03/03 00:40:20;;;;;;;28.80;15.70;;;6.70;65.10;6.30;96409.00;;;;5030909;28;20229;-81
2023/03/03 00:42:52;;;;;;;29.10;16.13;;;6.70;65.10;6.30;96421.00;;;;5036708;28;20204;-81
2023/03/03 00:45:35;;;;;;;28.67;16.00;;;6.70;65.00;6.30;96416.00;;;;5033584;28;20638;-81
2023/03/03 00:48:22;;;;;;;28.00;16.33;;;6.80;65.30;6.30;96414.00;;;;5013344;28;20577;-80
2023/03/03 00:50:50;;;;;;;29.40;16.43;;;6.70;66.00;6.30;96411.00;;;;5028748;28;20651;-81
2023/03/03 00:53:21;;;;;;;31.47;16.93;;;6.60;65.10;6.20;96413.00;;;;5015342;28;20194;-80
2023/03/03 00:55:51;;;;;;;30.67;17.47;;;6.60;65.20;6.20;96418.00;;;;5017258;28;20732;-81
2023/03/03 00:58:20;;;;;;;28.63;16.27;;;6.60;65.20;6.20;96427.00;;;;5032410;28;20292;-81
2023/03/03 01:00:50;;;;;;;28.50;16.03;;;6.60;65.30;6.20;96416.00;;;;5029485;28;20346;-80
2023/03/03 01:03:21;;;;;;;31.10;17.17;;;6.60;65.30;6.20;96422.00;;;;5024026;28;20276;-84
2023/03/03 01:05:49;;;;;;;31.27;17.20;;;6.60;65.40;6.20;96418.00;;;;5033971;28;20603;-80
2023/03/03 01:08:18;;;;;;;28.03;17.60;;;6.60;65.40;6.10;96412.00;;;;5032821;28;20579;-81
2023/03/03 01:10:50;;;;;;;30.67;16.93;;;6.50;65.30;6.10;96413.00;;;;5031889;28;20225;-81
2023/03/03 01:13:19;;;;;;;30.73;17.03;;;6.50;65.40;6.10;96404.00;;;;5028955;28;20213;-80
2023/03/03 01:15:47;;;;;;;31.63;16.80;;;6.50;65.50;6.10;96404.00;;;;5022498;28;20220;-81
2023/03/03 01:18:15;;;;;;;28.20;16.13;;;6.50;65.50;6.10;96402.00;;;;5030207;28;20202;-80
2023/03/03 01:20:44;;;;;;;32.23;16.67;;;6.50;65.50;6.10;96401.00;;;;5026821;28;20214;-79
2023/03/03 01:23:12;;;;;;;29.90;16.43;;;6.50;65.50;6.10;96407.00;;;;5041167;28;20201;-80
2023/03/03 01:25:40;;;;;;;28.03;16.80;;;6.50;65.60;6.10;96399.00;;;;5042221;28;20232;-80
2023/03/03 01:28:08;;;;;;;26.87;15.30;;;6.50;65.60;6.10;96395.00;;;;5021720;28;20229;-79
2023/03/03 01:30:36;;;;;;;29.33;16.70;;;6.50;65.60;6.10;96400.00;;;;5024619;28;20211;-80
2023/03/03 01:33:04;;;;;;;30.70;16.33;;;6.50;65.60;6.10;96406.00;;;;5032904;28;20288;-79
2023/03/03 01:35:31;;;;;;;26.87;16.17;;;6.40;65.50;6.10;96409.00;;;;5035761;28;20259;-81
2023/03/03 01:38:01;;;;;;;28.83;16.83;;;6.40;65.40;6.10;96406.00;;;;5037814;28;20194;-81
2023/03/03 01:40:31;;;;;;;30.73;17.17;;;6.40;65.40;6.10;96414.00;;;;5032614;28;20281;-81
2023/03/03 01:43:00;;;;;;;27.73;16.57;;;6.40;65.40;6.10;96408.00;;;;5043979;28;20205;-81
2023/03/03 01:45:30;;;;;;;32.57;16.83;;;6.40;65.40;6.00;96409.00;;;;5038916;28;20208;-81
2023/03/03 01:48:03;;;;;;;31.73;17.03;;;6.40;65.50;6.00;96409.00;;;;5036995;28;20205;-80
2023/03/03 01:50:45;;;;;;;31.73;16.97;;;6.40;65.50;6.00;96420.00;;;;5036362;28;20198;-81
2023/03/03 01:53:19;;;;;;;30.20;16.40;;;6.40;65.50;6.00;96414.00;;;;5037586;28;20197;-81
2023/03/03 01:55:49;;;;;;;30.37;16.53;;;6.40;65.50;5.90;96417.00;;;;5037654;28;20213;-81
2023/03/03 01:58:21;;;;;;;31.27;18.23;;;6.30;65.40;5.90;96420.00;;;;5037449;27;20201;-81
2023/03/03 02:00:57;;;;;;;30.70;16.83;;;6.30;65.50;5.90;96418.00;;;;5032323;28;20236;-81
2023/03/03 02:03:27;;;;;;;31.03;16.80;;;6.30;65.50;5.90;96409.00;;;;5038973;28;20221;-81
2023/03/03 02:06:02;;;;;;;32.93;16.83;;;6.30;65.60;5.90;96401.00;;;;5040327;28;20257;-81
2023/03/03 02:08:42;;;;;;;30.40;17.07;;;6.30;65.70;5.90;96417.00;;;;5048467;28;20292;-81
2023/03/03 02:11:12;;;;;;;29.30;17.67;;;6.20;65.80;5.90;96413.00;;;;5037777;28;20316;-80
2023/03/03 02:13:40;;;;;;;32.93;18.10;;;6.20;65.80;5.90;96405.00;;;;5038584;28;20198;-80
2023/03/03 02:16:09;;;;;;;30.43;17.37;;;6.20;65.80;5.80;96403.00;;;;5040942;28;20217;-78
2023/03/03 02:18:36;;;;;;;33.07;16.97;;;6.20;65.80;5.80;96401.00;;;;5034095;28;20197;-80
2023/03/03 02:21:11;;;;;;;32.63;16.97;;;6.20;65.90;5.80;96404.00;;;;5034138;28;20277;-80
2023/03/03 02:23:50;;;;;;;32.03;16.77;;;6.20;66.00;5.80;96402.00;;;;5043059;28;20749;-79
2023/03/03 02:26:24;;;;;;;32.33;18.60;;;6.20;66.10;5.80;96403.00;;;;5054477;28;20217;-80
2023/03/03 02:28:52;;;;;;;30.70;17.20;;;6.20;66.00;5.80;96405.00;;;;5030895;28;20224;-80
2023/03/03 02:31:23;;;;;;;32.13;17.63;;;6.20;65.90;5.80;96395.00;;;;5037468;28;20285;-80
2023/03/03 02:33:54;;;;;;;31.23;17.90;;;6.20;65.90;5.80;96403.00;;;;5039094;28;20225;-80
2023/03/03 02:36:24;;;;;;;34.13;18.23;;;6.20;66.00;5.80;96403.00;;;;5036722;28;20198;-81
2023/03/03 02:39:02;;;;;;;31.40;17.03;;;6.20;66.00;5.80;96405.00;;;;5026860;27;20197;-81
2023/03/03 02:41:39;;;;;;;30.87;17.93;;;6.20;66.10;5.80;96407.00;;;;5032615;28;20777;-81
2023/03/03 02:44:12;;;;;;;36.63;18.67;;;6.20;66.10;5.80;96395.00;;;;5037155;28;20201;-81
2023/03/03 02:46:42;;;;;;;29.37;16.93;;;6.10;65.90;5.80;96393.00;;;;5035968;28;20202;-81
2023/03/03 02:49:14;;;;;;;30.97;17.43;;;6.10;65.90;5.80;96393.00;;;;5031734;28;20291;-81
2023/03/03 02:51:42;;;;;;;29.73;17.60;;;6.10;66.00;5.80;96399.00;;;;5035948;28;20248;-81
2023/03/03 02:54:13;;;;;;;34.23;17.83;;;6.10;66.80;5.70;96402.00;;;;5035513;28;20205;-81
2023/03/03 02:56:43;;;;;;;31.80;17.87;;;6.20;66.20;5.70;96400.00;;;;5035057;28;20224;-80
2023/03/03 02:59:12;;;;;;;34.60;17.40;;;6.10;66.20;5.70;96396.00;;;;5031775;28;20204;-80
2023/03/03 03:01:39;;;;;;;30.97;16.83;;;6.10;66.10;5.70;96400.00;;;;5037132;28;20725;-81
2023/03/03 03:04:10;;;;;;;32.60;17.87;;;6.10;66.10;5.70;96401.00;;;;5015850;28;20198;-81
2023/03/03 03:06:38;;;;;;;33.27;18.10;;;6.10;66.10;5.70;96396.00;;;;5035444;28;20194;-81
2023/03/03 03:09:08;;;;;;;30.97;16.67;;;6.10;66.10;5.70;96391.00;;;;5029827;28;20292;-81
2023/03/03 03:11:36;;;;;;;35.77;17.67;;;6.00;66.00;5.70;96394.00;;;;5036968;28;20285;-82
2023/03/03 03:14:09;;;;;;;34.23;17.77;;;6.00;66.00;5.60;96393.00;;;;5033778;28;20288;-81
2023/03/03 03:16:36;;;;;;;33.73;18.20;;;6.00;66.00;5.60;96398.00;;;;5022580;28;20217;-80
2023/03/03 03:19:06;;;;;;;32.40;18.97;;;6.00;66.00;5.60;96398.00;;;;5025803;28;20297;-81
2023/03/03 03:21:33;;;;;;;31.77;17.87;;;6.00;66.10;5.60;96387.00;;;;5027191;28;20297;-82
2023/03/03 03:24:01;;;;;;;31.30;17.53;;;6.00;66.20;5.60;96397.00;;;;5030224;28;20201;-81
2023/03/03 03:26:32;;;;;;;33.43;17.17;;;5.90;66.30;5.60;96398.00;;;;5034786;28;20200;-82
2023/03/03 03:28:59;;;;;;;37.30;18.40;;;6.00;66.50;5.60;96406.00;;;;5027649;28;20268;-82
2023/03/03 03:31:28;;;;;;;30.33;17.43;;;6.00;66.60;5.70;96400.00;;;;5008806;28;21167;-81
2023/03/03 03:33:55;;;;;;;35.13;18.13;;;6.00;66.70;5.70;96400.00;;;;5034426;28;20232;-82
2023/03/03 03:36:22;;;;;;;33.40;17.77;;;6.00;66.70;5.70;96401.00;;;;5032721;27;20225;-81
2023/03/03 03:38:51;;;;;;;31.33;17.20;;;6.00;66.80;5.80;96396.00;;;;5035037;28;20198;-82
2023/03/03 03:41:18;;;;;;;30.53;17.17;;;6.00;67.00;5.80;96409.00;;;;5030719;28;20223;-81
2023/03/03 03:43:45;;;;;;;33.23;17.63;;;6.10;67.10;5.80;96412.00;;;;5031000;28;20209;-82
2023/03/03 03:46:16;;;;;;;32.03;17.30;;;6.10;67.20;5.90;96416.00;;;;5032610;28;20197;-79
2023/03/03 03:48:45;;;;;;;32.73;17.20;;;6.20;67.20;5.90;96420.00;;;;5013544;28;20566;-80
2023/03/03 03:51:12;;;;;;;33.17;17.53;;;6.20;67.30;6.00;96417.00;;;;5027064;28;20284;-82
2023/03/03 03:53:40;;;;;;;31.17;17.67;;;6.20;67.30;6.00;96419.00;;;;5037799;28;20203;-81
2023/03/03 03:56:08;;;;;;;31.97;17.97;;;6.20;67.30;6.10;96419.00;;;;5039926;28;20221;-80
2023/03/03 03:58:35;;;;;;;31.10;17.80;;;6.30;67.30;6.10;96418.00;;;;5022662;28;20301;-80
2023/03/03 04:01:04;;;;;;;31.97;17.27;;;6.30;67.30;6.20;96410.00;;;;5016701;28;20698;-82
2023/03/03 04:03:32;;;;;;;31.37;17.37;;;6.30;67.30;6.20;96413.00;;;;5039150;28;20202;-82
2023/03/03 04:06:00;;;;;;;31.57;17.27;;;6.30;67.20;6.20;96417.00;;;;5031386;28;20205;-81
2023/03/03 04:08:29;;;;;;;31.67;18.57;;;6.30;67.20;6.20;96416.00;;;;5032159;28;20205;-81
2023/03/03 04:10:56;;;;;;;31.70;16.37;;;6.40;67.10;6.30;96420.00;;;;5032114;28;20737;-81
2023/03/03 04:13:27;;;;;;;33.63;17.67;;;6.40;67.10;6.30;96409.00;;;;5044621;28;20260;-81
2023/03/03 04:15:55;;;;;;;33.57;17.73;;;6.40;67.20;6.30;96405.00;;;;5025645;28;20242;-81
2023/03/03 04:18:22;;;;;;;33.17;17.80;;;6.50;67.20;6.40;96406.00;;;;5030317;28;20228;-81
2023/03/03 04:20:51;;;;;;;33.07;17.33;;;6.50;67.20;6.40;96412.00;;;;5027839;28;20221;-82
2023/03/03 04:23:22;;;;;;;33.27;17.47;;;6.60;67.20;6.40;96421.00;;;;5033552;28;20281;-81
2023/03/03 04:25:50;;;;;;;32.83;17.17;;;6.60;67.20;6.40;96408.00;;;;5037983;28;20194;-82
2023/03/03 04:28:20;;;;;;;31.50;17.13;;;6.60;67.10;6.50;96415.00;;;;5038759;28;20272;-81
2023/03/03 04:30:48;;;;;;;33.43;18.67;;;6.70;67.10;6.50;96408.00;;;;5049759;28;20213;-81
2023/03/03 04:33:15;;;;;;;31.23;17.53;;;6.70;67.00;6.50;96413.00;;;;5042018;28;20182;-81
2023/03/03 04:35:42;;;;;;;35.10;18.63;;;6.70;67.00;6.60;96412.00;;;;5046633;28;20212;-83
2023/03/03 04:38:10;;;;;;;32.37;17.30;;;6.70;67.00;6.60;96414.00;;;;5039518;28;20217;-82
2023/03/03 04:40:40;;;;;;;28.40;16.57;;;6.80;67.10;6.60;96402.00;;;;5025664;28;20224;-82
2023/03/03 04:43:08;;;;;;;32.83;17.53;;;6.80;67.10;6.60;96412.00;;;;5031593;28;20185;-82
2023/03/03 04:45:35;;;;;;;34.37;16.83;;;6.80;67.00;6.70;96404.00;;;;5053282;28;20209;-82
2023/03/03 04:48:02;;;;;;;31.53;18.03;;;6.80;67.00;6.70;96404.00;;;;5054458;28;20220;-82
2023/03/03 04:50:29;;;;;;;33.20;18.30;;;6.90;67.00;6.70;96403.00;;;;5045794;28;20220;-82
2023/03/03 04:52:57;;;;;;;30.50;16.70;;;6.90;66.90;6.70;96400.00;;;;5054456;28;20188;-82
2023/03/03 04:55:25;;;;;;;34.33;18.63;;;6.90;66.80;6.80;96407.00;;;;5046890;28;20201;-83
2023/03/03 04:57:54;;;;;;;32.57;17.90;;;6.90;66.80;6.80;96401.00;;;;5050372;28;20224;-81
2023/03/03 05:00:22;;;;;;;32.23;17.07;;;7.00;66.80;6.80;96407.00;;;;5033789;28;20201;-83
2023/03/03 05:02:49;;;;;;;36.33;18.43;;;7.00;66.80;6.80;96412.00;;;;5031956;28;20272;-83
2023/03/03 05:05:18;;;;;;;33.97;18.23;;;7.00;66.80;6.90;96413.00;;;;5031925;28;20277;-82
2023/03/03 05:07:46;;;;;;;35.47;19.07;;;7.00;66.80;6.90;96414.00;;;;5030344;28;20194;-82
2023/03/03 05:10:13;;;;;;;36.87;18.30;;;7.10;66.80;6.90;96411.00;;;;5022134;27;20209;-82
2023/03/03 05:12:40;;;;;;;33.57;18.27;;;7.10;66.70;6.90;96411.00;;;;5033940;28;20220;-82
2023/03/03 05:15:12;;;;;;;32.80;17.63;;;7.10;66.60;6.90;96411.00;;;;5034414;28;20288;-82
2023/03/03 05:17:40;;;;;;;31.40;17.33;;;7.10;66.60;6.90;96418.00;;;;5033864;28;20603;-82
2023/03/03 05:20:10;;;;;;;30.10;17.23;;;7.10;66.50;7.00;96426.00;;;;5029941;28;20202;-81
2023/03/03 05:22:37;;;;;;;34.27;18.10;;;7.20;67.30;7.00;96425.00;;;;5034928;28;20308;-82
2023/03/03 05:25:08;;;;;;;32.83;18.47;;;7.20;66.50;7.00;96423.00;;;;5034943;28;20194;-82
2023/03/03 05:27:35;;;;;;;32.20;17.97;;;7.20;66.40;7.00;96425.00;;;;5034068;28;20222;-83
2023/03/03 05:30:03;;;;;;;29.33;16.90;;;7.20;66.40;7.00;96422.00;;;;5030365;28;20281;-82
2023/03/03 05:32:32;;;;;;;29.83;17.13;;;7.20;66.40;7.00;96428.00;;;;5031191;28;20218;-82
2023/03/03 05:34:59;;;;;;;30.77;17.23;;;7.20;66.50;7.00;96438.00;;;;5034086;28;20202;-83
2023/03/03 05:37:26;;;;;;;30.77;17.20;;;7.20;66.50;7.00;96423.00;;;;5034743;28;20656;-80
2023/03/03 05:39:54;;;;;;;32.47;17.00;;;7.20;66.50;7.00;96426.00;;;;5032586;28;20727;-80
2023/03/03 05:42:22;;;;;;;36.43;18.33;;;7.20;66.50;7.00;96427.00;;;;5028894;28;20221;-80
2023/03/03 05:44:50;;;;;;;33.00;18.67;;;7.20;66.50;7.10;96426.00;;;;5032763;28;20281;-80
2023/03/03 05:47:17;;;;;;;31.87;18.07;;;7.20;66.50;7.00;96427.00;;;;5019367;28;20242;-79
2023/03/03 05:49:47;;;;;;;29.43;17.97;;;7.20;66.50;7.10;96436.00;;;;5034432;28;20225;-80
2023/03/03 05:52:17;;;;;;;32.37;17.40;;;7.30;66.60;7.10;96434.00;;;;5031694;28;20293;-80
2023/03/03 05:54:45;;;;;;;35.30;18.30;;;7.30;66.60;7.10;96429.00;;;;4999294;28;20690;-80
2023/03/03 05:57:12;;;;;;;34.10;18.13;;;7.30;66.60;7.10;96445.00;;;;5017284;28;20236;-80
2023/03/03 05:59:40;;;;;;;30.97;17.30;;;7.30;66.60;7.10;96454.00;;;;5026993;28;20276;-82
2023/03/03 06:02:09;;;;;;;32.13;17.97;;;7.30;66.70;7.20;96454.00;;;;5036144;28;20301;-83
2023/03/03 06:04:36;;;;;;;32.37;18.33;;;7.30;66.70;7.20;96460.00;;;;5035302;28;20216;-85
2023/03/03 06:07:06;;;;;;;30.57;17.70;;;7.40;66.80;7.30;96461.00;;;;5024258;28;20233;-83
2023/03/03 06:09:33;;;;;;;33.60;17.90;;;7.40;66.80;7.40;96453.00;;;;5033531;28;20298;-85
2023/03/03 06:12:00;;;;;;;34.70;18.53;;;7.40;66.80;7.40;96461.00;;;;5035058;28;20261;-83
2023/03/03 06:14:28;;;;;;;31.00;18.03;;;7.50;66.80;7.50;96460.00;;;;5035523;28;20223;-82
2023/03/03 06:16:56;;;;;;;31.20;17.37;;;7.50;66.70;7.50;96457.00;;;;5021254;28;20287;-84
2023/03/03 06:19:24;;;;;;;31.60;17.60;;;7.50;66.60;7.60;96460.00;;;;5035330;28;20246;-85
2023/03/03 06:21:51;;;;;;;35.93;19.67;;;7.50;66.60;7.60;96451.00;;;;5018109;28;20233;-84
2023/03/03 06:24:23;;;;;;;30.67;17.27;;;7.60;66.50;7.60;96462.00;;;;5036952;28;20219;-84
2023/03/03 06:26:50;;;;;;;28.57;17.10;;;7.60;66.40;7.60;96464.00;;;;5031395;28;20292;-84
2023/03/03 06:29:17;;;;;;;31.33;17.47;;;7.60;66.50;7.60;96455.00;;;;5038027;28;20201;-84
2023/03/03 06:31:45;;;;;;;32.10;17.43;;;7.60;66.60;7.70;96462.00;;;;5029894;27;20226;-84
2023/03/03 06:34:12;;;;;;;32.07;17.37;;;7.60;66.50;7.70;96462.00;;;;5034831;28;20202;-83
2023/03/03 06:36:40;;;;;;;34.00;18.73;;;7.70;66.50;7.70;96472.00;;;;5034735;28;20332;-84
2023/03/03 06:39:07;;;;;;;30.60;17.93;;;7.70;66.50;7.80;96476.00;;;;5034112;28;20201;-86
2023/03/03 06:41:36;;;;;;;32.23;18.87;;;7.70;66.60;7.80;96471.00;;;;5033451;28;20996;-86
2023/03/03 06:44:04;;;;;;;29.10;17.70;;;7.70;66.50;7.80;96483.00;;;;4996177;28;20209;-85
2023/03/03 06:46:32;;;;;;;31.73;18.27;;;7.80;66.50;7.90;96483.00;;;;5025595;28;20284;-85
2023/03/03 06:48:59;;;;;;;32.77;19.07;;;7.80;66.50;7.90;96490.00;;;;5035694;28;20236;-87
2023/03/03 06:51:33;;;;;;;30.80;17.30;;;7.80;66.50;7.90;96507.00;;;;5017021;28;20228;-86
2023/03/03 06:54:11;;;;;;;29.00;17.53;;;7.90;66.50;8.00;96503.00;;;;5034517;28;20238;-87
2023/03/03 06:56:41;;;;;;;31.93;16.87;;;7.90;66.40;8.00;96513.00;;;;5034571;28;20292;-86
2023/03/03 06:59:15;;;;;;;30.80;18.13;;;8.00;66.50;8.10;96517.00;;;;5036429;28;20718;-86
2023/03/03 07:01:43;;;;;;;29.73;17.57;;;8.00;66.40;8.10;96520.00;;;;5034136;28;20217;-86
2023/03/03 07:04:29;;;;;;;33.73;18.53;;;8.10;66.40;8.20;96522.00;;;;5037003;27;20239;-85
2023/03/03 07:07:00;;;;;;;29.07;17.27;;;8.10;66.20;8.20;96519.00;;;;5032776;28;20209;-88
2023/03/03 07:09:29;;;;;;;31.97;18.37;;;8.20;66.20;8.30;96518.00;;;;5035534;28;20197;-87
2023/03/03 07:12:06;;;;;;;32.93;18.20;;;8.20;66.10;8.30;96518.00;;;;5033667;28;20221;-86
2023/03/03 07:14:39;;;;;;;30.07;18.40;;;8.30;66.10;8.30;96516.00;;;;5041538;28;20221;-85
2023/03/03 07:17:16;;;;;;;32.20;18.63;;;8.30;65.90;8.40;96525.00;;;;5025540;28;20300;-85
2023/03/03 07:19:44;;;;;;;29.93;18.07;;;8.30;66.00;8.40;96518.00;;;;5017457;28;20205;-86
2023/03/03 07:22:17;;;;;;;32.43;17.87;;;8.30;66.10;8.50;96520.00;;;;5027609;28;20589;-86
2023/03/03 07:24:47;;;;;;;29.27;17.57;;;8.40;66.10;8.50;96533.00;;;;5026860;28;20220;-88
2023/03/03 07:27:24;;;;;;;29.03;17.80;;;8.40;66.00;8.50;96533.00;;;;5028939;28;20286;-87
2023/03/03 07:29:54;;;;;;;28.07;16.87;;;8.50;65.90;8.60;96524.00;;;;5033226;28;20189;-85
2023/03/03 07:32:39;;;;;;;31.20;17.70;;;8.50;65.80;8.60;96525.00;;;;5029133;28;20266;-87
2023/03/03 07:35:29;;;;;;;32.13;17.87;;;8.50;65.70;8.60;96516.00;;;;5031831;28;20225;-87
2023/03/03 07:37:57;;;;;;;32.53;18.53;;;8.60;65.50;8.60;96525.00;;;;5012989;28;20207;-84
2023/03/03 07:40:37;;;;;;;27.13;17.90;;;8.60;65.50;8.70;96529.00;;;;5022895;28;20654;-85
2023/03/03 07:43:35;;;;;;;28.93;17.13;;;8.60;65.50;8.70;96538.00;;;;5029950;28;20577;-88
2023/03/03 07:46:23;;;;;;;28.93;17.67;;;8.60;65.60;8.80;96546.00;;;;5030658;28;20764;-87
2023/03/03 07:48:52;;;;;;;31.67;18.23;;;8.60;65.70;8.80;96537.00;;;;5030289;28;20281;-87
2023/03/03 07:51:26;;;;;;;30.00;17.63;;;8.70;65.80;8.90;96553.00;;;;5029566;28;20225;-87
2023/03/03 07:53:59;;;;;;;27.93;18.30;;;8.70;65.70;8.90;96548.00;;;;5031992;28;20251;-86
2023/03/03 07:56:30;;;;;;;30.23;18.03;;;8.80;65.80;9.00;96554.00;;;;5032494;28;20193;-87
2023/03/03 07:59:00;;;;;;;27.73;17.77;;;8.80;65.80;9.10;96548.00;;;;5030558;28;20220;-86
2023/03/03 08:01:42;;;;;;;32.13;18.83;;;8.90;65.80;9.10;96546.00;;;;5030986;28;20214;-87
2023/03/03 08:04:19;;;;;;;29.53;17.87;;;8.90;65.60;9.20;96556.00;;;;5031181;28;20569;-87
2023/03/03 08:06:53;;;;;;;28.43;17.60;;;9.00;65.70;9.30;96561.00;;;;5033074;28;20623;-89
2023/03/03 08:09:58;;;;;;;32.67;18.30;;;9.00;65.70;9.40;96565.00;;;;5028900;28;20652;-87
2023/03/03 08:12:41;;;;;;;27.77;17.43;;;9.10;65.40;9.40;96562.00;;;;4971148;28;21872;-84
2023/03/03 08:15:22;;;;;;;33.37;18.33;;;9.20;65.40;9.50;96563.00;;;;4955885;28;20253;-83
2023/03/03 08:17:55;;;;;;;28.10;18.33;;;9.30;65.50;9.60;96569.00;;;;5003668;27;20473;-84
2023/03/03 08:20:46;;;;;;;28.63;17.60;;;9.30;65.40;9.60;96565.00;;;;5031201;28;20198;-85
2023/03/03 08:23:16;;;;;;;29.17;17.80;;;9.40;65.20;9.70;96562.00;;;;5021684;27;20655;-85
2023/03/03 08:25:45;;;;;;;30.57;18.17;;;9.40;65.20;9.70;96566.00;;;;5031490;28;20607;-87
2023/03/03 08:28:14;;;;;;;26.87;17.53;;;9.50;65.10;9.70;96566.00;;;;5032778;28;20780;-87
2023/03/03 08:30:45;;;;;;;28.83;18.07;;;9.50;65.00;9.80;96567.00;;;;5052514;27;20241;-86
2023/03/03 08:33:13;;;;;;;31.33;18.10;;;9.60;65.10;9.90;96574.00;;;;5035554;28;20236;-84
2023/03/03 08:35:42;;;;;;;28.20;17.10;;;9.60;65.10;10.00;96572.00;;;;5036454;28;20202;-86
2023/03/03 08:38:11;;;;;;;29.13;19.07;;;9.70;65.00;10.00;96565.00;;;;5030145;28;20264;-84
2023/03/03 08:40:39;;;;;;;29.47;18.60;;;9.80;65.00;10.10;96574.00;;;;5028977;28;20213;-84
2023/03/03 08:43:09;;;;;;;29.33;18.60;;;9.80;64.70;10.20;96568.00;;;;5018297;28;20229;-84
2023/03/03 08:45:38;;;;;;;31.77;18.37;;;9.90;64.40;10.20;96579.00;;;;5078562;28;20198;-84
2023/03/03 08:48:07;;;;;;;27.33;16.67;;;9.90;65.00;10.30;96573.00;;;;5034783;28;20205;-84
2023/03/03 08:50:34;;;;;;;28.43;16.63;;;10.00;64.30;10.40;96577.00;;;;5032332;28;20205;-84
2023/03/03 08:53:02;;;;;;;30.50;18.53;;;10.00;64.40;10.40;96583.00;;;;5031275;28;20296;-84
2023/03/03 08:55:31;;;;;;;26.87;17.17;;;10.10;64.40;10.50;96591.00;;;;5033709;27;20289;-85
2023/03/03 08:57:58;;;;;;;26.47;17.47;;;10.20;64.40;10.60;96593.00;;;;5033725;28;20224;-83
2023/03/03 09:00:26;;;;;;;28.10;17.17;;;10.20;64.30;10.60;96586.00;;;;4999287;28;20194;-83
2023/03/03 09:02:54;;;;;;;27.93;18.13;;;10.30;64.20;10.70;96596.00;;;;5033300;28;20254;-84
2023/03/03 09:05:25;;;;;;;28.90;17.60;;;10.30;64.20;10.80;96602.00;;;;5031095;28;20677;-84
2023/03/03 09:07:53;;;;;;;32.33;19.40;;;10.40;64.00;10.80;96595.00;;;;5015505;28;20688;-83
2023/03/03 09:10:26;;;;;;;28.50;17.53;;;10.50;63.80;10.90;96591.00;;;;5027885;28;20663;-84
2023/03/03 09:12:57;;;;;;;26.77;17.47;;;10.50;63.60;10.90;96600.00;;;;5037052;28;20670;-83
2023/03/03 09:15:27;;;;;;;30.37;18.70;;;10.60;63.70;11.00;96594.00;;;;5027019;28;20271;-84
2023/03/03 09:17:58;;;;;;;31.17;19.03;;;10.60;63.70;11.10;96597.00;;;;5016916;28;20222;-84
2023/03/03 09:20:39;;;;;;;29.90;19.20;;;10.70;63.80;11.20;96602.00;;;;5021433;28;20226;-84
2023/03/03 09:23:32;;;;;;;36.53;18.07;;;10.80;63.50;11.30;96605.00;;;;5035505;28;20644;-84
2023/03/03 09:26:25;;;;;;;25.40;17.07;;;10.90;63.40;11.40;96606.00;;;;5022502;28;20232;-84
2023/03/03 09:28:54;;;;;;;29.20;17.83;;;10.90;64.50;11.50;96606.00;;;;5021837;28;20285;-83
2023/03/03 09:31:36;;;;;;;26.00;16.80;;;11.00;63.80;11.70;96611.00;;;;5032959;28;20781;-84
2023/03/03 09:34:16;;;;;;;28.23;18.13;;;11.20;63.60;11.80;96613.00;;;;5036185;28;20200;-83
2023/03/03 09:36:44;;;;;;;29.40;18.30;;;11.30;63.70;11.90;96618.00;;;;5031289;28;20198;-83
2023/03/03 09:39:19;;;;;;;29.43;18.73;;;11.40;63.60;12.00;96615.00;;;;5029949;28;20237;-84
2023/03/03 09:42:26;;;;;;;26.53;17.33;;;11.50;63.30;12.10;96624.00;;;;5033991;28;20296;-84
2023/03/03 09:45:57;;;;;;;27.97;17.30;;;11.60;62.60;12.20;96632.00;;;;5033750;28;20639;-84
2023/03/03 09:48:52;;;;;;;29.13;17.30;;;11.70;62.30;12.30;96632.00;;;;5029098;28;20237;-84
2023/03/03 09:51:46;;;;;;;25.73;16.83;;;11.80;62.30;12.30;96631.00;;;;5035109;28;20229;-85
2023/03/03 09:54:41;;;;;;;27.90;16.33;;;11.90;62.30;12.40;96625.00;;;;5013376;28;20270;-84
2023/03/03 09:57:16;;;;;;;29.43;17.93;;;12.00;62.00;12.40;96622.00;;;;5032322;28;20223;-84
2023/03/03 10:00:18;;;;;;;29.03;18.23;;;12.00;62.00;12.50;96622.00;;;;5037456;28;20311;-84
2023/03/03 10:03:04;;;;;;;30.33;19.10;;;12.10;61.50;12.60;96631.00;;;;5039086;28;20205;-85
2023/03/03 10:05:45;;;;;;;27.77;17.70;;;12.20;61.50;12.70;96633.00;;;;5036748;28;20201;-85
2023/03/03 10:08:38;;;;;;;25.80;17.23;;;12.20;61.20;12.70;96629.00;;;;5022832;28;20654;-84
2023/03/03 10:11:23;;;;;;;24.67;16.97;;;12.30;61.30;12.80;96630.00;;;;5016434;28;20230;-84
2023/03/03 10:14:11;;;;;;;30.10;17.83;;;12.40;61.50;13.00;96622.00;;;;5026554;27;20208;-84
2023/03/03 10:16:58;;;;;;;27.33;17.63;;;12.50;62.30;13.30;96634.00;;;;5036540;28;20284;-85
2023/03/03 10:19:38;;;;;;;26.90;17.50;;;12.70;62.60;13.60;96638.00;;;;5034054;28;20595;-85
2023/03/03 10:22:24;;;;;;;25.17;17.37;;;13.00;62.40;13.90;96637.00;;;;5034861;28;20351;-84
2023/03/03 10:25:08;;;;;;;24.93;17.50;;;13.20;62.50;14.20;96634.00;;;;5015297;28;20617;-85
2023/03/03 10:27:58;;;;;;;26.30;17.50;;;13.50;62.70;14.40;96644.00;;;;5014236;28;20212;-86
2023/03/03 10:30:41;;;;;;;25.23;17.00;;;13.70;62.20;14.70;96655.00;;;;5015759;28;20293;-86
2023/03/03 10:33:19;;;;;;;26.53;17.73;;;14.00;61.80;14.80;96656.00;;;;5024487;28;20622;-87
2023/03/03 10:36:18;;;;;;;27.30;17.00;;;14.20;60.90;14.90;96658.00;;;;5035440;28;20238;-86
2023/03/03 10:39:02;;;;;;;28.27;18.13;;;14.40;60.00;15.00;96659.00;;;;5035793;28;20226;-85
2023/03/03 10:42:10;;;;;;;24.90;15.93;;;14.50;59.70;15.10;96658.00;;;;5028591;28;20241;-86
2023/03/03 10:45:24;;;;;;;24.80;16.83;;;14.70;58.90;15.10;96663.00;;;;5018605;28;20221;-87
2023/03/03 10:48:09;;;;;;;26.50;16.47;;;14.70;58.30;15.10;96666.00;;;;5029911;28;20197;-86
2023/03/03 10:50:53;;;;;;;23.13;16.67;;;14.80;58.40;15.20;96665.00;;;;5017682;28;20312;-86
2023/03/03 10:53:31;;;;;;;21.43;15.50;;;14.80;58.30;15.20;96663.00;;;;5030930;28;20288;-86
2023/03/03 10:56:20;;;;;;;24.37;16.23;;;14.80;58.20;15.20;96661.00;;;;5034226;28;20205;-86
2023/03/03 10:59:08;;;;;;;24.90;16.50;;;14.90;57.60;15.20;96664.00;;;;5032728;28;20305;-86
2023/03/03 11:01:58;;;;;;;24.23;15.37;;;14.80;57.60;15.10;96657.00;;;;5033797;28;20308;-87
2023/03/03 11:05:12;;;;;;;23.37;15.30;;;14.80;57.30;15.10;96648.00;;;;5017700;28;20232;-86
2023/03/03 11:07:46;;;;;;;25.20;16.30;;;14.80;57.10;15.10;96640.00;;;;5022247;28;20247;-86
2023/03/03 11:10:45;;;;;;;25.47;16.30;;;14.70;57.30;15.00;96650.00;;;;5031367;28;20296;-86
2023/03/03 11:13:23;;;;;;;22.50;15.17;;;14.80;57.00;15.00;96651.00;;;;5032993;28;20711;-85
2023/03/03 11:16:18;;;;;;;23.20;15.37;;;14.70;57.10;14.90;96641.00;;;;5034260;28;20182;-87
2023/03/03 11:19:13;;;;;;;28.00;16.67;;;14.70;56.60;14.80;96647.00;;;;5034081;28;20296;-88